DuBois Regional Airport
KDUJ : now visible

Airfield :











YOU CAN JOIN US ON...

 
LOGIN :

Register | Disclaimer

   EN    FR    IT 

 









Legend :    VFR   Marginal VFR   IFR   Intensive IFR   Very Intensive IFR
Visi :
Ceiling :
>= 8 km
>= 3000ft
5 to 8 km
1000 to 3000 ft
1500m to 5 km
500 to 1000 ft
800 to 1500m
200 to 500 ft
< 800m
< 200 ft
Symbols :   Thunderstorms  Fog  Heavy snow  Heavy precipitations  Wind > 20 kt






- Airport Elevation : 1817 ft
- IATA code : DUJ


KDUJ - DuBois Regional

CURRENT METAR :
  • 080553Z AUTO 29009KT 7SM -RA FEW040 OVC060 11/09 A2964 RMK AO2 PK WND 31030/0503 LTG DSNT SE AND S RAB0459 TSB02E28 SLP035 P0022 60066 T01060089 10139 20106 53003

EXPIRED METARs :
  • 080534Z AUTO 29008G21KT 5SM VCTS -RA BR BKN055 OVC070 11/09 A2963 RMK AO2 PK WND 31030/0503 LTG DSNT E-SW RAB0459 TSB02E28 P0018 T01110089
  • 080522Z AUTO 30013G18KT 5SM -TSRA BR FEW015 BKN049 OVC065 11/09 A2963 RMK AO2 PK WND 31030/0503 LTG DSNT ALQDS RAB0459 TSB02 P0015 T01110089
  • 080502Z AUTO 33015G25KT 7SM -TSRA FEW013 BKN021 OVC055 13/11 A2964 RMK AO2 LTG DSNT ALQDS RAB0459 TSB02 PRESRR P0002 T01330106
  • 080453Z AUTO 33007G21KT 10SM VCTS SCT016 BKN042 OVC060 13/11 A2960 RMK AO2 PK WND 22033/0415 WSHFT 0437 LTG DSNT ALQDS RAB0356E53 TSB05E52 SLP017 P0044 T01330111 401670061
  • 080445Z AUTO 23012G24KT 4SM TSRA BR SCT032 BKN044 OVC060 13/12 A2957 RMK AO2 PK WND 22033/0415 LTG DSNT ALQDS RAB0356 TSB05 P0044 T01330117
  • 080430Z AUTO 21007KT 2 1/2SM -TSRA BR FEW024 BKN035 OVC070 13/12 A2958 RMK AO2 PK WND 22033/0415 VIS 1 3/4V4 LTG DSNT ALQDS RAB0356 TSB05 P0032 T01280117
  • 080415Z AUTO 23018G33KT 1 3/4SM +TSRA BR SCT035 BKN050 OVC090 13/11 A2957 RMK AO2 PK WND 22033/0415 LTG DSNT ALQDS RAB0356 TSB05 P0022 T01280111
  • 080353Z AUTO 23007KT 10SM VCTS SCT034 SCT095 BKN110 13/11 A2959 RMK AO2 LTG DSNT ALQDS SLP017 T01280106

TAF KDUJ
Valid from the 08 at 06:00 until the 09 at 06:00 UTC


080539Z 0806/0906 30013G18KT 5SM -TSRA BR SCT025CB OVC080
FM080700 27005KT 5SM BR OVC006
FM081500 30007KT P6SM BKN012
FM082100 29006KT P6SM SKC



MET'MAP, your aeronautical weather chart ! - Copyright ORBIFLY December 2007 - Disclaimer

ORBIFLY MET'MAP TEAM :

Programming & Development : Alexandra Zaïnal
Concept & original design : Baudouin d'Aumeries
Assistance for programming : Marc-Olivier Méhu
Technical & hardware support : Manuel Goepfert

Contact : metmap@orbifly.com




SOURCES & CREDITS :

   NOAA       Earth
Advisory